createdAt,value
2019-01-19T00:02:23.681Z,4.92
2019-01-19T00:06:23.334Z,3.80
2019-01-19T00:09:42.015Z,3.85
2019-01-19T00:13:36.446Z,3.15
2019-01-19T00:17:45.139Z,5.17
2019-01-19T00:21:42.092Z,7.05
2019-01-19T00:25:23.720Z,2.55
2019-01-19T00:28:45.210Z,2.52
2019-01-19T00:32:25.101Z,3.62
2019-01-19T00:36:11.499Z,2.70
2019-01-19T00:40:28.770Z,4.50
2019-01-19T00:43:59.470Z,4.25
2019-01-19T00:47:39.008Z,3.87
2019-01-19T00:51:51.308Z,2.77
2019-01-19T00:56:15.470Z,5.42
2019-01-19T00:59:31.509Z,3.45
2019-01-19T01:03:40.582Z,3.95
2019-01-19T01:07:40.683Z,4.60
2019-01-19T01:11:32.005Z,3.67
2019-01-19T01:15:53.411Z,4.15
2019-01-19T01:19:59.071Z,3.75
2019-01-19T01:23:58.840Z,3.20
2019-01-19T01:28:13.028Z,2.80
2019-01-19T01:32:13.989Z,2.52
2019-01-19T01:36:29.275Z,3.45
2019-01-19T01:40:19.873Z,3.87
2019-01-19T01:44:00.431Z,3.30
2019-01-19T01:47:55.996Z,2.47
2019-01-19T01:51:37.614Z,3.50
2019-01-19T01:55:16.745Z,3.17
2019-01-19T01:59:03.518Z,3.05
2019-01-19T02:03:15.941Z,5.42
2019-01-19T02:06:56.672Z,1.92
2019-01-19T02:10:34.080Z,4.03
2019-01-19T02:14:03.276Z,3.25
2019-01-19T02:18:13.274Z,5.20
2019-01-19T02:22:01.860Z,4.00
2019-01-19T02:25:58.714Z,2.58
2019-01-19T02:30:08.433Z,2.25
2019-01-19T02:33:57.646Z,1.57
2019-01-19T02:38:04.802Z,3.20
2019-01-19T02:42:24.288Z,2.75
2019-01-19T02:46:30.191Z,1.80
2019-01-19T02:50:25.805Z,3.10
2019-01-19T02:54:31.152Z,2.05
2019-01-19T02:58:09.396Z,2.62
2019-01-19T03:02:02.820Z,4.25
2019-01-19T03:05:56.142Z,2.40
2019-01-19T03:10:02.076Z,2.10
2019-01-19T03:14:12.098Z,3.10
2019-01-19T03:18:09.166Z,3.58
2019-01-19T03:22:11.901Z,2.52
2019-01-19T03:26:05.243Z,2.20
2019-01-19T03:29:55.070Z,3.35
2019-01-19T03:33:42.075Z,2.80
2019-01-19T03:37:39.003Z,2.75
2019-01-19T03:41:53.426Z,2.12
2019-01-19T03:45:42.691Z,3.02
2019-01-19T03:50:01.517Z,2.00
2019-01-19T03:53:56.144Z,2.10
2019-01-19T03:58:01.907Z,2.92
2019-01-19T04:02:09.739Z,2.35
2019-01-19T04:06:14.635Z,2.20
2019-01-19T04:10:14.101Z,2.52
2019-01-19T04:14:30.852Z,2.80
2019-01-19T04:18:20.409Z,4.62
2019-01-19T04:22:05.419Z,1.90
2019-01-19T04:26:08.215Z,2.77
2019-01-19T04:29:15.667Z,2.58
2019-01-19T04:32:22.559Z,3.10
2019-01-19T04:35:29.482Z,2.27
2019-01-19T04:38:38.039Z,2.52
2019-01-19T04:41:45.047Z,2.47
2019-01-19T04:44:51.930Z,2.00
2019-01-19T04:47:58.861Z,2.02
2019-01-19T04:51:06.035Z,1.95
2019-01-19T04:54:13.205Z,2.12
2019-01-19T04:57:20.102Z,3.30
2019-01-19T05:00:27.034Z,2.45
2019-01-19T05:03:33.919Z,2.20
2019-01-19T05:06:40.858Z,2.70
2019-01-19T05:09:47.866Z,2.40
2019-01-19T05:12:54.812Z,1.90
2019-01-19T05:16:01.779Z,3.02
2019-01-19T05:19:08.693Z,2.42
2019-01-19T05:22:15.632Z,2.00
2019-01-19T05:25:22.559Z,2.52
2019-01-19T05:28:29.444Z,2.60
2019-01-19T05:31:36.470Z,1.87
2019-01-19T05:34:43.826Z,2.02
2019-01-19T05:37:50.765Z,2.60
2019-01-19T05:40:57.657Z,2.47
2019-01-19T05:44:04.586Z,1.92
2019-01-19T05:47:11.654Z,2.47
2019-01-19T05:50:23.576Z,2.40
2019-01-19T05:53:30.798Z,2.50
2019-01-19T05:56:37.730Z,3.40
2019-01-19T05:59:44.613Z,2.08
2019-01-19T06:02:51.553Z,1.80
2019-01-19T06:05:58.811Z,1.95
2019-01-19T06:09:08.947Z,1.77
2019-01-19T06:12:15.964Z,1.72
2019-01-19T06:15:23.394Z,2.17
2019-01-19T06:18:32.265Z,2.45
2019-01-19T06:21:47.896Z,3.15
2019-01-19T06:24:54.797Z,2.55
2019-01-19T06:28:01.725Z,2.15
2019-01-19T06:31:08.736Z,2.62
2019-01-19T06:34:15.781Z,2.15
2019-01-19T06:37:22.823Z,2.15
2019-01-19T06:40:29.760Z,2.47
2019-01-19T06:43:36.641Z,1.85
2019-01-19T06:46:43.567Z,2.30
2019-01-19T06:49:50.446Z,2.00
2019-01-19T06:52:57.366Z,2.20
2019-01-19T06:56:04.529Z,2.15
2019-01-19T06:59:17.386Z,2.25
2019-01-19T07:02:20.108Z,1.62
2019-01-19T07:05:27.040Z,3.30
2019-01-19T07:08:33.935Z,10.25
2019-01-19T07:11:41.376Z,7.58
2019-01-19T07:14:48.260Z,3.50
2019-01-19T07:17:55.217Z,2.25
2019-01-19T07:21:02.119Z,1.90
2019-01-19T07:24:09.051Z,2.22
2019-01-19T07:27:17.117Z,2.80
2019-01-19T07:30:24.053Z,2.98
2019-01-19T07:33:31.052Z,2.55
2019-01-19T07:36:38.016Z,1.60
2019-01-19T07:39:44.911Z,2.00
2019-01-19T07:42:56.791Z,2.98
2019-01-19T07:46:05.133Z,3.42
2019-01-19T07:49:14.661Z,2.20
2019-01-19T07:52:21.569Z,2.17
2019-01-19T07:55:28.472Z,6.47
2019-01-19T07:58:36.585Z,2.62
2019-01-19T08:01:43.582Z,3.77
2019-01-19T08:04:50.490Z,3.08
2019-01-19T08:07:57.446Z,3.65
2019-01-19T08:11:04.473Z,2.60
2019-01-19T08:14:12.841Z,3.27
2019-01-19T08:17:19.733Z,3.27
2019-01-19T08:20:26.724Z,3.55
2019-01-19T08:23:35.321Z,2.62
2019-01-19T08:26:42.604Z,3.55
2019-01-19T08:29:49.977Z,3.37
2019-01-19T08:32:57.156Z,3.58
2019-01-19T08:36:04.854Z,3.27
2019-01-19T08:39:12.449Z,2.30
2019-01-19T08:42:36.573Z,4.28
2019-01-19T08:45:45.265Z,3.70
2019-01-19T08:48:52.634Z,5.05
2019-01-19T08:51:59.871Z,2.85
2019-01-19T08:55:23.558Z,3.47
2019-01-19T08:58:33.072Z,3.42
2019-01-19T09:01:55.073Z,3.52
2019-01-19T09:05:05.311Z,2.55
2019-01-19T09:08:15.595Z,2.47
2019-01-19T09:11:23.784Z,4.37
2019-01-19T09:14:31.061Z,4.22
2019-01-19T09:17:45.538Z,3.55
2019-01-19T09:24:44.209Z,3.92
2019-01-19T09:27:51.118Z,3.35
2019-01-19T09:30:58.119Z,2.85
2019-01-19T09:34:05.428Z,3.87
2019-01-19T09:37:12.555Z,4.78
2019-01-19T09:40:20.028Z,4.17
2019-01-19T09:43:27.204Z,4.10
2019-01-19T09:46:34.114Z,3.95
2019-01-19T09:49:41.862Z,3.02
2019-01-19T09:52:48.775Z,5.22
2019-01-19T09:55:55.848Z,3.05
2019-01-19T09:59:02.757Z,3.50
2019-01-19T10:02:12.508Z,4.90
2019-01-19T10:05:22.104Z,4.28
2019-01-19T10:08:29.020Z,3.45
2019-01-19T10:11:36.189Z,5.80
2019-01-19T10:14:43.185Z,3.50
2019-01-19T10:17:50.166Z,3.22
2019-01-19T10:20:57.597Z,4.22
2019-01-19T10:24:04.670Z,4.75
2019-01-19T10:27:13.490Z,4.42
2019-01-19T10:30:24.569Z,4.05
2019-01-19T10:33:32.702Z,6.42
2019-01-19T10:36:39.878Z,3.98
2019-01-19T10:39:47.228Z,5.28
2019-01-19T10:42:54.207Z,4.42
2019-01-19T10:46:03.860Z,5.90
2019-01-19T10:49:15.089Z,3.30
2019-01-19T10:52:23.158Z,4.08
2019-01-19T10:55:33.154Z,5.08
2019-01-19T10:58:42.040Z,3.42
2019-01-19T11:01:50.665Z,4.95
2019-01-19T11:05:00.299Z,5.90
2019-01-19T11:08:12.280Z,3.98
2019-01-19T11:11:21.171Z,4.70
2019-01-19T11:14:29.955Z,4.87
2019-01-19T11:17:37.699Z,4.28
2019-01-19T11:20:44.628Z,4.72
2019-01-19T11:23:51.719Z,6.30
2019-01-19T11:26:58.757Z,4.62
2019-01-19T11:30:06.887Z,3.70
2019-01-19T11:33:14.384Z,4.92
2019-01-19T11:36:23.823Z,5.12
2019-01-19T11:39:31.085Z,3.85
2019-01-19T11:42:38.012Z,4.45
2019-01-19T11:45:46.747Z,4.65
2019-01-19T11:48:54.362Z,6.47
2019-01-19T11:52:01.266Z,3.95
2019-01-19T11:55:11.182Z,4.85
2019-01-19T11:58:19.423Z,5.55
2019-01-19T12:01:26.421Z,4.47
2019-01-19T12:04:33.295Z,6.15
2019-01-19T12:07:41.561Z,5.00
2019-01-19T12:10:48.599Z,4.45
2019-01-19T12:13:56.384Z,5.55
2019-01-19T12:17:03.263Z,5.05
2019-01-19T12:20:19.877Z,8.20
2019-01-19T12:23:26.795Z,4.80
2019-01-19T12:26:33.847Z,4.92
2019-01-19T12:29:40.734Z,5.33
2019-01-19T12:32:47.705Z,5.97
2019-01-19T12:35:54.718Z,5.78
2019-01-19T12:39:01.658Z,3.50
2019-01-19T12:42:09.806Z,2.42
2019-01-19T12:45:27.986Z,5.55
2019-01-19T12:48:34.895Z,4.20
2019-01-19T12:51:42.397Z,2.92
2019-01-19T12:54:49.531Z,3.37
2019-01-19T12:57:56.616Z,4.35
2019-01-19T13:01:03.959Z,4.03
2019-01-19T13:04:11.976Z,3.55
2019-01-19T13:07:19.240Z,4.40
2019-01-19T13:10:40.713Z,3.65
2019-01-19T13:13:52.244Z,4.90
2019-01-19T13:17:49.608Z,3.33
2019-01-19T13:22:00.593Z,4.40
2019-01-19T13:25:49.034Z,3.95
2019-01-19T13:29:47.361Z,3.52
2019-01-19T13:33:55.325Z,3.50
2019-01-19T13:38:02.402Z,3.52
2019-01-19T13:41:56.389Z,4.37
2019-01-19T13:46:00.304Z,4.65
2019-01-19T13:49:58.376Z,4.95
2019-01-19T13:54:20.807Z,7.17
2019-01-19T13:58:02.183Z,5.90
2019-01-19T14:02:01.830Z,6.55
2019-01-19T14:05:56.506Z,5.50
2019-01-19T14:09:51.030Z,6.22
2019-01-19T14:13:51.216Z,6.83
2019-01-19T14:18:19.495Z,7.50
2019-01-19T14:22:15.804Z,6.72
2019-01-19T14:26:33.463Z,5.45
2019-01-19T14:30:38.952Z,6.05
2019-01-19T14:34:20.031Z,6.05
2019-01-19T14:38:25.246Z,5.35
2019-01-19T14:42:27.136Z,5.00
2019-01-19T14:46:16.508Z,5.15
2019-01-19T14:50:31.910Z,4.70
2019-01-19T14:54:37.291Z,5.37
2019-01-19T14:58:36.240Z,7.17
2019-01-19T15:02:51.553Z,6.67
2019-01-19T15:07:01.506Z,8.78
2019-01-19T15:10:53.029Z,10.55
2019-01-19T15:14:50.637Z,3.30
2019-01-19T15:18:57.184Z,5.83
2019-01-19T15:22:50.629Z,8.00
2019-01-19T15:27:21.849Z,5.28
2019-01-19T15:31:08.013Z,5.15
2019-01-19T15:35:19.011Z,5.75
2019-01-19T15:39:40.963Z,5.53
2019-01-19T15:43:34.722Z,3.92
2019-01-19T15:47:30.966Z,4.53
2019-01-19T15:51:33.600Z,4.20
2019-01-19T15:55:11.334Z,5.47
2019-01-19T15:59:14.350Z,5.62
2019-01-19T16:03:42.632Z,5.28
2019-01-19T16:07:21.326Z,4.70
2019-01-19T16:11:55.801Z,7.10
2019-01-19T16:16:13.610Z,5.58
2019-01-19T16:20:17.486Z,5.97
2019-01-19T16:24:12.393Z,6.17
2019-01-19T16:28:27.246Z,4.95
2019-01-19T16:32:19.668Z,4.17
2019-01-19T16:35:55.888Z,4.65
2019-01-19T16:40:09.061Z,6.67
2019-01-19T16:43:53.706Z,5.30
2019-01-19T16:47:50.904Z,3.52
2019-01-19T16:52:03.510Z,3.85
2019-01-19T16:56:01.325Z,4.42
2019-01-19T17:00:09.401Z,7.65
2019-01-19T17:04:02.280Z,7.92
2019-01-19T17:08:04.027Z,8.30
2019-01-19T17:12:22.255Z,9.23
2019-01-19T17:16:05.099Z,5.22
2019-01-19T17:19:57.099Z,4.33
2019-01-19T17:23:34.219Z,5.25
2019-01-19T17:27:25.874Z,3.58
2019-01-19T17:31:34.193Z,5.15
2019-01-19T17:35:33.419Z,3.92
2019-01-19T17:39:29.215Z,5.37
2019-01-19T17:44:06.571Z,6.92
2019-01-19T17:47:45.046Z,5.00
2019-01-19T17:51:44.683Z,4.08
2019-01-19T17:55:57.396Z,7.45
2019-01-19T18:00:02.357Z,6.22
2019-01-19T18:03:49.156Z,4.97
2019-01-19T18:08:01.544Z,8.50
2019-01-19T18:12:20.109Z,5.42
2019-01-19T18:16:29.534Z,6.58
2019-01-19T18:20:13.991Z,6.00
2019-01-19T18:24:25.914Z,8.28
2019-01-19T18:28:30.712Z,8.33
2019-01-19T18:32:39.746Z,7.00
2019-01-19T18:36:30.287Z,7.83
2019-01-19T18:40:36.678Z,8.80
2019-01-19T18:44:39.400Z,6.70
2019-01-19T18:48:47.219Z,11.35
2019-01-19T18:52:37.479Z,10.88
2019-01-19T18:56:46.441Z,7.12
2019-01-19T19:00:47.980Z,7.50
2019-01-19T19:04:55.221Z,9.30
2019-01-19T19:08:40.256Z,7.67
2019-01-19T19:12:47.107Z,10.18
2019-01-19T19:16:35.926Z,9.80
2019-01-19T19:20:10.156Z,6.55
2019-01-19T19:24:08.531Z,8.05
2019-01-19T19:28:08.998Z,10.58
2019-01-19T19:32:00.779Z,8.25
2019-01-19T19:36:18.970Z,11.33
2019-01-19T19:40:24.264Z,7.78
2019-01-19T19:44:12.263Z,7.85
2019-01-19T19:48:05.608Z,9.85
2019-01-19T19:52:07.311Z,9.85
2019-01-19T19:55:12.725Z,7.95
2019-01-19T19:58:20.293Z,7.30
2019-01-19T20:01:28.081Z,8.30
2019-01-19T20:04:35.966Z,9.78
2019-01-19T20:07:44.374Z,11.30
2019-01-19T20:10:52.789Z,8.45
2019-01-19T20:14:01.454Z,11.83
2019-01-19T20:17:10.785Z,11.93
2019-01-19T20:20:18.376Z,11.75
2019-01-19T20:23:27.399Z,10.40
2019-01-19T20:26:35.448Z,11.57
2019-01-19T20:29:44.008Z,10.85
2019-01-19T20:32:52.131Z,9.33
2019-01-19T20:36:03.264Z,10.88
2019-01-19T20:39:13.036Z,13.55
2019-01-19T20:42:23.489Z,11.48
2019-01-19T20:45:31.756Z,11.83
2019-01-19T20:48:40.062Z,11.97
2019-01-19T20:51:51.301Z,8.33
2019-01-19T20:55:10.342Z,9.30
2019-01-19T20:58:17.968Z,12.40
2019-01-19T21:01:25.685Z,10.88
2019-01-19T21:04:34.450Z,9.60
2019-01-19T21:07:42.681Z,10.50
2019-01-19T21:10:50.822Z,8.70
2019-01-19T21:13:59.678Z,8.68
2019-01-19T21:17:08.226Z,10.60
2019-01-19T21:20:17.524Z,8.10
2019-01-19T21:23:25.930Z,8.45
2019-01-19T21:26:35.002Z,11.63
2019-01-19T21:29:44.238Z,7.03
2019-01-19T21:32:52.740Z,8.35
2019-01-19T21:36:00.600Z,13.30
2019-01-19T21:39:10.383Z,11.12
2019-01-19T21:42:18.582Z,11.53
2019-01-19T21:45:26.617Z,11.70
2019-01-19T21:48:34.523Z,12.82
2019-01-19T21:51:44.417Z,10.35
2019-01-19T21:54:52.379Z,9.15
2019-01-19T21:58:00.218Z,9.10
2019-01-19T22:01:08.915Z,9.88
2019-01-19T22:04:20.145Z,11.40
2019-01-19T22:07:28.300Z,9.53
2019-01-19T22:10:36.375Z,8.40
2019-01-19T22:13:43.928Z,10.78
2019-01-19T22:16:52.405Z,9.25
2019-01-19T22:20:00.460Z,11.75
2019-01-19T22:23:08.369Z,9.38
2019-01-19T22:26:18.601Z,12.60
2019-01-19T22:29:26.471Z,10.43
2019-01-19T22:32:34.624Z,8.35
2019-01-19T22:35:43.086Z,11.00
2019-01-19T22:38:51.482Z,11.57
2019-01-19T22:42:00.172Z,12.25
2019-01-19T22:45:11.451Z,10.15
2019-01-19T22:48:19.449Z,10.53
2019-01-19T22:51:27.955Z,8.05
2019-01-19T22:54:36.230Z,11.10
2019-01-19T22:57:44.522Z,13.78
2019-01-19T23:01:39.646Z,12.78
2019-01-19T23:04:48.003Z,9.43
2019-01-19T23:07:56.036Z,9.00
2019-01-19T23:11:03.271Z,10.20
2019-01-19T23:14:13.029Z,10.95
2019-01-19T23:17:20.644Z,11.65
2019-01-19T23:20:28.608Z,10.48
2019-01-19T23:23:37.642Z,13.62
2019-01-19T23:26:46.298Z,12.28
2019-01-19T23:29:54.205Z,10.65
2019-01-19T23:33:03.436Z,10.53
2019-01-19T23:36:11.358Z,10.85
2019-01-19T23:39:19.396Z,15.30
2019-01-19T23:42:28.635Z,11.88
2019-01-19T23:45:36.381Z,11.18
2019-01-19T23:48:44.662Z,8.48
2019-01-19T23:51:52.663Z,13.22
2019-01-19T23:55:00.713Z,9.35
2019-01-19T23:58:08.665Z,11.28
